Santa Lucia, Brazil
Current Conditions -  °F | °C
As of 7:00 PM on Saturday 22 Nov 2014 (Local Time) from SBFI Reporting Station
Few Clouds Few Clouds  
Wind Chill: 81°   Ceiling: Unl
Heat Index: 82°   Visibility: 6mi
Dew Point: 64°   Wind: 3mph
Humidity: 58%   Direction: 200°SSW
Pressure: 29.85"   Gusts: NA
Location:  25.41°S, 53.57°W
Report Text: SBFI 222100Z 20003KT 9999 FEW025 27/18 Q1011
Loading
Personal Weather Stations






























Interactive Weather Map New forecast layout! Learn more

10-Day Weather Forecast

Advertisements
Track Severe Weather on mobile